createdAt,value
2023-12-23T00:00:02.562Z,50.18
2023-12-23T00:00:07.842Z,50.18
2023-12-23T00:00:28.759Z,50.18
2023-12-23T00:00:44.508Z,50.18
2023-12-23T00:00:55.058Z,50.18
2023-12-23T00:01:00.443Z,50.18
2023-12-23T00:01:05.805Z,50.18
2023-12-23T00:01:11.149Z,50.18
2023-12-23T00:01:32.115Z,50.18
2023-12-23T00:01:47.781Z,50.18
2023-12-23T00:01:58.283Z,50.18
2023-12-23T00:02:03.570Z,50.18
2023-12-23T00:02:08.837Z,50.18
2023-12-23T00:02:14.181Z,50.18
2023-12-23T00:02:35.047Z,50.18
2023-12-23T00:02:50.709Z,50.29
2023-12-23T00:03:01.176Z,50.18
2023-12-23T00:03:06.445Z,50.18
2023-12-23T00:03:11.737Z,50.18
2023-12-23T00:03:16.986Z,50.18
2023-12-23T00:03:37.903Z,50.18
2023-12-23T00:03:53.646Z,50.18
2023-12-23T00:04:04.112Z,50.18
2023-12-23T00:04:09.364Z,50.18
2023-12-23T00:04:14.614Z,50.18
2023-12-23T00:04:19.856Z,50.29
2023-12-23T00:04:40.743Z,50.29
2023-12-23T00:04:56.519Z,50.29
2023-12-23T00:05:07.108Z,50.29
2023-12-23T00:05:12.502Z,50.29
2023-12-23T00:05:17.898Z,50.29
2023-12-23T00:05:23.317Z,50.29
2023-12-23T00:05:44.460Z,50.29
2023-12-23T00:06:00.257Z,50.29
2023-12-23T00:06:10.906Z,50.29
2023-12-23T00:06:16.326Z,50.29
2023-12-23T00:06:21.647Z,50.29
2023-12-23T00:06:26.906Z,50.29
2023-12-23T00:06:47.807Z,50.38
2023-12-23T00:07:03.477Z,50.29
2023-12-23T00:07:14.001Z,50.29
2023-12-23T00:07:19.250Z,50.29
2023-12-23T00:07:24.497Z,50.29
2023-12-23T00:07:29.779Z,50.29
2023-12-23T00:07:51.026Z,50.29
2023-12-23T00:08:06.920Z,50.38
2023-12-23T00:08:17.506Z,50.29
2023-12-23T00:08:22.908Z,50.29
2023-12-23T00:08:30.491Z,50.29
2023-12-23T00:08:36.060Z,50.29
2023-12-23T00:08:51.737Z,50.29
2023-12-23T00:09:07.399Z,50.29
2023-12-23T00:09:17.873Z,50.29
2023-12-23T00:09:23.108Z,50.29
2023-12-23T00:09:28.350Z,50.29
2023-12-23T00:09:38.852Z,50.29
2023-12-23T00:09:54.598Z,50.29
2023-12-23T00:10:10.280Z,50.29
2023-12-23T00:10:20.823Z,50.38
2023-12-23T00:10:26.200Z,50.29
2023-12-23T00:10:31.572Z,50.29
2023-12-23T00:10:42.096Z,50.29
2023-12-23T00:10:57.902Z,50.38
2023-12-23T00:11:13.676Z,50.38
2023-12-23T00:11:24.238Z,50.38
2023-12-23T00:11:29.533Z,50.38
2023-12-23T00:11:34.776Z,50.38
2023-12-23T00:11:45.240Z,50.38
2023-12-23T00:12:00.938Z,50.38
2023-12-23T00:12:16.749Z,50.38
2023-12-23T00:12:27.231Z,50.38
2023-12-23T00:12:32.747Z,50.38
2023-12-23T00:12:38.161Z,50.38
2023-12-23T00:12:48.689Z,50.48
2023-12-23T00:13:04.352Z,50.48
2023-12-23T00:13:20.036Z,50.48
2023-12-23T00:13:30.545Z,50.48
2023-12-23T00:13:35.787Z,50.48
2023-12-23T00:13:41.131Z,50.48
2023-12-23T00:13:51.687Z,50.38
2023-12-23T00:14:07.424Z,50.38
2023-12-23T00:14:23.144Z,50.41
2023-12-23T00:14:33.644Z,50.38
2023-12-23T00:14:38.875Z,50.48
2023-12-23T00:14:44.145Z,50.48
2023-12-23T00:14:54.618Z,50.48
2023-12-23T00:15:10.322Z,50.48
2023-12-23T00:15:26.007Z,50.51
2023-12-23T00:15:36.453Z,50.48
2023-12-23T00:15:41.701Z,50.48
2023-12-23T00:15:46.934Z,50.48
2023-12-23T00:15:57.390Z,50.38
2023-12-23T00:16:13.084Z,50.48
2023-12-23T00:16:28.778Z,50.38
2023-12-23T00:16:39.280Z,50.38
2023-12-23T00:16:44.551Z,50.48
2023-12-23T00:16:49.851Z,50.51
2023-12-23T00:17:00.385Z,50.38
2023-12-23T00:17:16.220Z,50.48
2023-12-23T00:17:32.254Z,50.48
2023-12-23T00:17:44.537Z,50.48
2023-12-23T00:17:51.231Z,50.59
2023-12-23T00:17:57.192Z,50.48
2023-12-23T00:18:03.298Z,50.48
2023-12-23T00:18:19.364Z,50.48
2023-12-23T00:18:35.248Z,50.48
2023-12-23T00:18:45.938Z,50.59
2023-12-23T00:18:51.285Z,50.61
2023-12-23T00:19:01.879Z,50.59
2023-12-23T00:19:07.424Z,50.59
2023-12-23T00:19:23.420Z,50.59
2023-12-23T00:19:39.281Z,50.59
2023-12-23T00:19:49.917Z,50.59
2023-12-23T00:19:55.374Z,50.59
2023-12-23T00:20:06.103Z,50.61
2023-12-23T00:20:11.554Z,50.61
2023-12-23T00:20:27.290Z,50.61
2023-12-23T00:20:43.009Z,50.61
2023-12-23T00:20:53.594Z,50.68
2023-12-23T00:20:59.018Z,50.59
2023-12-23T00:21:09.654Z,50.61
2023-12-23T00:21:15.000Z,50.59
2023-12-23T00:21:30.726Z,50.59
2023-12-23T00:21:46.442Z,50.59
2023-12-23T00:21:56.906Z,50.48
2023-12-23T00:22:02.160Z,50.48
2023-12-23T00:22:12.613Z,50.51
2023-12-23T00:22:17.867Z,50.51
2023-12-23T00:22:33.532Z,50.59
2023-12-23T00:22:49.219Z,50.61
2023-12-23T00:22:59.777Z,50.51
2023-12-23T00:23:05.008Z,50.51
2023-12-23T00:23:15.539Z,50.61
2023-12-23T00:23:20.839Z,50.61
2023-12-23T00:23:36.528Z,50.61
2023-12-23T00:23:52.223Z,50.61
2023-12-23T00:24:02.702Z,50.48
2023-12-23T00:24:07.933Z,50.48
2023-12-23T00:24:18.391Z,50.51
2023-12-23T00:24:23.622Z,50.61
2023-12-23T00:24:39.268Z,50.59
2023-12-23T00:24:54.975Z,50.61
2023-12-23T00:25:05.454Z,50.61
2023-12-23T00:25:10.672Z,50.61
2023-12-23T00:25:21.133Z,50.59
2023-12-23T00:25:26.383Z,50.59
2023-12-23T00:25:42.050Z,50.61
2023-12-23T00:25:57.730Z,50.61
2023-12-23T00:26:08.312Z,50.59
2023-12-23T00:26:13.629Z,50.61
2023-12-23T00:26:24.140Z,50.61
2023-12-23T00:26:29.372Z,50.61
2023-12-23T00:26:45.054Z,50.61
2023-12-23T00:27:00.734Z,50.59
2023-12-23T00:27:11.194Z,50.61
2023-12-23T00:27:16.525Z,50.71
2023-12-23T00:27:26.946Z,50.61
2023-12-23T00:27:32.179Z,50.61
2023-12-23T00:27:48.145Z,50.61
2023-12-23T00:28:03.989Z,50.61
2023-12-23T00:28:14.491Z,50.61
2023-12-23T00:28:19.719Z,50.61
2023-12-23T00:28:30.171Z,50.61
2023-12-23T00:28:35.434Z,50.59
2023-12-23T00:28:51.138Z,50.61
2023-12-23T00:29:06.870Z,50.71
2023-12-23T00:29:17.323Z,50.68
2023-12-23T00:29:22.568Z,50.71
2023-12-23T00:29:33.034Z,50.61
2023-12-23T00:29:38.278Z,50.61
2023-12-23T00:29:53.979Z,50.71
2023-12-23T00:30:09.666Z,50.68
2023-12-23T00:30:20.140Z,50.68
2023-12-23T00:30:25.425Z,50.71
2023-12-23T00:30:35.896Z,50.68
2023-12-23T00:30:41.169Z,50.71
2023-12-23T00:30:56.872Z,50.68
2023-12-23T00:31:12.584Z,50.71
2023-12-23T00:31:23.064Z,50.71
2023-12-23T00:31:28.301Z,50.68
2023-12-23T00:31:38.888Z,50.71
2023-12-23T00:31:44.158Z,50.71
2023-12-23T00:31:59.947Z,50.61
2023-12-23T00:32:15.704Z,50.71
2023-12-23T00:32:26.175Z,50.71
2023-12-23T00:32:31.455Z,50.71
2023-12-23T00:32:42.059Z,50.71
2023-12-23T00:32:47.380Z,50.71
2023-12-23T00:33:03.107Z,50.81
2023-12-23T00:33:18.848Z,50.81
2023-12-23T00:33:29.367Z,50.81
2023-12-23T00:33:34.662Z,50.81
2023-12-23T00:33:45.133Z,50.68
2023-12-23T00:33:50.496Z,50.68
2023-12-23T00:34:06.262Z,50.71
2023-12-23T00:34:21.973Z,50.71
2023-12-23T00:34:32.432Z,50.81
2023-12-23T00:34:37.703Z,50.81
2023-12-23T00:34:48.195Z,50.71
2023-12-23T00:34:53.480Z,50.71
2023-12-23T00:35:09.540Z,50.71
2023-12-23T00:35:25.329Z,50.81
2023-12-23T00:35:35.787Z,50.81
2023-12-23T00:35:41.018Z,50.81
2023-12-23T00:35:51.506Z,50.81
2023-12-23T00:35:56.757Z,50.81
2023-12-23T00:36:12.446Z,50.91
2023-12-23T00:36:28.098Z,51.01
2023-12-23T00:36:38.556Z,50.91
2023-12-23T00:36:43.808Z,50.91
2023-12-23T00:36:54.332Z,51.01
2023-12-23T00:36:59.670Z,50.91
2023-12-23T00:37:15.408Z,51.01
2023-12-23T00:37:31.218Z,50.91
2023-12-23T00:37:41.916Z,50.91
2023-12-23T00:37:47.443Z,50.91
2023-12-23T00:37:58.034Z,50.91
2023-12-23T00:38:03.346Z,50.91
2023-12-23T00:38:19.011Z,50.91
2023-12-23T00:38:34.680Z,50.91
2023-12-23T00:38:45.181Z,50.91
2023-12-23T00:38:50.432Z,50.91
2023-12-23T00:39:00.883Z,50.91
2023-12-23T00:39:06.119Z,50.91
2023-12-23T00:39:21.843Z,51.01
2023-12-23T00:39:37.495Z,51.11
2023-12-23T00:39:47.979Z,51.11
2023-12-23T00:39:53.208Z,51.01
2023-12-23T00:40:03.667Z,50.91
2023-12-23T00:40:08.917Z,50.91
2023-12-23T00:40:24.599Z,50.91
2023-12-23T00:40:40.325Z,50.91
2023-12-23T00:40:50.863Z,50.91
2023-12-23T00:40:56.144Z,51.01
2023-12-23T00:41:06.705Z,51.01
2023-12-23T00:41:12.011Z,50.91
2023-12-23T00:41:27.808Z,51.01
2023-12-23T00:41:43.494Z,51.11
2023-12-23T00:41:53.947Z,51.11
2023-12-23T00:41:59.198Z,51.11
2023-12-23T00:42:09.651Z,51.01
2023-12-23T00:42:14.912Z,51.11
2023-12-23T00:42:30.585Z,51.01
2023-12-23T00:42:46.264Z,51.11
2023-12-23T00:42:56.763Z,51.01
2023-12-23T00:43:02.006Z,51.01
2023-12-23T00:43:12.472Z,51.01
2023-12-23T00:43:17.718Z,51.11
2023-12-23T00:43:33.509Z,51.11
2023-12-23T00:43:49.236Z,51.11
2023-12-23T00:43:59.730Z,51.11
2023-12-23T00:44:05.086Z,51.11
2023-12-23T00:44:15.598Z,51.11
2023-12-23T00:44:20.901Z,51.11
2023-12-23T00:44:36.634Z,51.11
2023-12-23T00:44:52.306Z,51.11
2023-12-23T00:45:02.834Z,51.11
2023-12-23T00:45:08.079Z,51.11
2023-12-23T00:45:18.537Z,51.11
2023-12-23T00:45:23.784Z,51.11
2023-12-23T00:45:39.469Z,51.11
2023-12-23T00:45:55.140Z,51.11
2023-12-23T00:46:05.633Z,51.11
2023-12-23T00:46:10.865Z,51.11
2023-12-23T00:46:21.334Z,51.11
2023-12-23T00:46:26.630Z,51.11
2023-12-23T00:46:42.332Z,51.21
2023-12-23T00:46:58.043Z,51.11
2023-12-23T00:47:08.534Z,51.11
2023-12-23T00:47:13.843Z,51.11
2023-12-23T00:47:24.441Z,51.11
2023-12-23T00:47:34.204Z,51.11
2023-12-23T00:47:46.646Z,51.11
2023-12-23T00:48:02.420Z,51.01
2023-12-23T00:48:13.141Z,51.11
2023-12-23T00:48:18.615Z,51.11
2023-12-23T00:48:29.167Z,51.11
2023-12-23T00:48:34.658Z,51.01
2023-12-23T00:48:50.449Z,51.11
2023-12-23T00:49:06.237Z,51.11
2023-12-23T00:49:16.774Z,51.21
2023-12-23T00:49:22.061Z,51.11
2023-12-23T00:49:32.592Z,51.11
2023-12-23T00:49:37.933Z,51.11
2023-12-23T00:49:53.678Z,51.11
2023-12-23T00:50:09.430Z,51.21
2023-12-23T00:50:20.014Z,51.11
2023-12-23T00:50:25.300Z,51.11
2023-12-23T00:50:35.760Z,51.21
2023-12-23T00:50:40.993Z,51.21
2023-12-23T00:50:56.661Z,51.11
2023-12-23T00:51:12.332Z,51.11
2023-12-23T00:51:22.840Z,51.11
2023-12-23T00:51:28.065Z,51.11
2023-12-23T00:51:38.525Z,51.11
2023-12-23T00:51:43.772Z,51.11
2023-12-23T00:51:59.466Z,51.11
2023-12-23T00:52:15.142Z,51.11
2023-12-23T00:52:25.597Z,51.11
2023-12-23T00:52:30.844Z,51.11
2023-12-23T00:52:41.325Z,51.11
2023-12-23T00:52:46.592Z,51.11
2023-12-23T00:53:02.329Z,51.11
2023-12-23T00:53:18.130Z,51.11
2023-12-23T00:53:28.627Z,51.11
2023-12-23T00:53:33.946Z,51.11
2023-12-23T00:53:47.309Z,51.11
2023-12-23T00:53:53.924Z,51.11
2023-12-23T00:54:04.389Z,51.11
2023-12-23T00:54:20.212Z,51.11
2023-12-23T00:54:30.693Z,51.11
2023-12-23T00:54:35.937Z,51.11
2023-12-23T00:54:46.374Z,51.11
2023-12-23T00:54:56.824Z,51.11
2023-12-23T00:55:07.307Z,51.11
2023-12-23T00:55:23.011Z,51.11
2023-12-23T00:55:33.519Z,51.11
2023-12-23T00:55:38.954Z,51.21
2023-12-23T00:55:49.459Z,51.11
2023-12-23T00:55:59.931Z,51.11
2023-12-23T00:56:10.592Z,51.21
2023-12-23T00:56:26.361Z,51.11
2023-12-23T00:56:36.809Z,51.21
2023-12-23T00:56:42.041Z,51.11
2023-12-23T00:56:52.513Z,51.21
2023-12-23T00:57:02.971Z,51.21
2023-12-23T00:57:13.436Z,51.11
2023-12-23T00:57:29.143Z,51.21
2023-12-23T00:57:39.603Z,51.21
2023-12-23T00:57:44.846Z,51.21
2023-12-23T00:57:55.294Z,51.11
2023-12-23T00:58:05.754Z,51.11
2023-12-23T00:58:16.197Z,51.21
2023-12-23T00:58:31.872Z,51.21
2023-12-23T00:58:42.441Z,51.31
2023-12-23T00:58:47.705Z,51.21
2023-12-23T00:58:58.234Z,51.21
2023-12-23T00:59:08.719Z,51.21
2023-12-23T00:59:19.248Z,51.21
2023-12-23T00:59:34.942Z,51.21
2023-12-23T00:59:45.415Z,51.21
2023-12-23T00:59:50.680Z,51.21
2023-12-23T01:00:01.152Z,51.11
2023-12-23T01:00:11.606Z,51.11
2023-12-23T01:00:22.083Z,51.21
2023-12-23T01:00:37.814Z,51.21
2023-12-23T01:00:48.332Z,51.21
2023-12-23T01:00:53.636Z,51.21
2023-12-23T01:01:04.143Z,51.21
2023-12-23T01:01:14.633Z,51.21
2023-12-23T01:01:25.072Z,51.31
2023-12-23T01:01:40.746Z,51.21
2023-12-23T01:01:51.224Z,51.21
2023-12-23T01:01:56.526Z,51.21
2023-12-23T01:02:06.999Z,51.31
2023-12-23T01:02:17.522Z,51.31
2023-12-23T01:02:28.091Z,51.21
2023-12-23T01:02:43.750Z,51.21
2023-12-23T01:02:54.225Z,51.21
2023-12-23T01:02:59.448Z,51.21
2023-12-23T01:03:09.893Z,51.21
2023-12-23T01:03:20.398Z,51.21
2023-12-23T01:03:31.041Z,51.21
2023-12-23T01:03:46.765Z,51.31
2023-12-23T01:03:57.406Z,51.21
2023-12-23T01:04:02.756Z,51.21
2023-12-23T01:04:13.246Z,51.31
2023-12-23T01:04:23.933Z,51.31
2023-12-23T01:04:34.453Z,51.31
2023-12-23T01:04:50.932Z,51.42
2023-12-23T01:05:01.887Z,51.31
2023-12-23T01:05:07.204Z,51.31
2023-12-23T01:05:17.861Z,51.31
2023-12-23T01:05:28.344Z,51.31
2023-12-23T01:05:38.815Z,51.31
2023-12-23T01:05:54.518Z,51.31
2023-12-23T01:06:05.095Z,51.31
2023-12-23T01:06:10.355Z,51.31
2023-12-23T01:06:20.912Z,51.31
2023-12-23T01:06:31.402Z,51.31
2023-12-23T01:06:41.948Z,51.31
2023-12-23T01:06:57.678Z,51.31
2023-12-23T01:07:08.134Z,51.31
2023-12-23T01:07:13.365Z,51.31
2023-12-23T01:07:23.805Z,51.21
2023-12-23T01:07:34.318Z,51.31
2023-12-23T01:07:44.911Z,51.21
2023-12-23T01:08:00.664Z,51.21
2023-12-23T01:08:11.178Z,51.31
2023-12-23T01:08:16.538Z,51.31
2023-12-23T01:08:27.112Z,51.21
2023-12-23T01:08:37.583Z,51.21
2023-12-23T01:08:48.053Z,51.21
2023-12-23T01:09:03.737Z,51.21
2023-12-23T01:09:14.188Z,51.21
2023-12-23T01:09:19.424Z,51.21
2023-12-23T01:09:29.890Z,51.21
2023-12-23T01:09:40.352Z,51.21
2023-12-23T01:09:50.828Z,51.21
2023-12-23T01:10:06.616Z,51.21
2023-12-23T01:10:17.073Z,51.21
2023-12-23T01:10:22.343Z,51.21
2023-12-23T01:10:32.811Z,51.21
2023-12-23T01:10:43.289Z,51.21
2023-12-23T01:10:53.777Z,51.21
2023-12-23T01:11:09.521Z,51.31
2023-12-23T01:11:19.969Z,51.31
2023-12-23T01:11:25.308Z,51.31
2023-12-23T01:11:35.775Z,51.31
2023-12-23T01:11:46.202Z,51.31
2023-12-23T01:11:56.663Z,51.31
2023-12-23T01:12:12.322Z,51.31
2023-12-23T01:12:22.876Z,51.31
2023-12-23T01:12:28.109Z,51.31
2023-12-23T01:12:38.599Z,51.31
2023-12-23T01:12:49.058Z,51.31
2023-12-23T01:12:59.508Z,51.42
2023-12-23T01:13:15.156Z,51.42
2023-12-23T01:13:25.648Z,51.31
2023-12-23T01:13:30.860Z,51.31
2023-12-23T01:13:41.344Z,51.31
2023-12-23T01:13:51.809Z,51.31
2023-12-23T01:14:02.326Z,51.42
2023-12-23T01:14:18.025Z,51.31
2023-12-23T01:14:28.507Z,51.31
2023-12-23T01:14:33.756Z,51.31
2023-12-23T01:14:44.233Z,51.31
2023-12-23T01:14:54.683Z,51.31
2023-12-23T01:15:05.150Z,51.31
2023-12-23T01:15:20.820Z,51.42
2023-12-23T01:15:31.320Z,51.31
2023-12-23T01:15:36.558Z,51.31
2023-12-23T01:15:47.014Z,51.31
2023-12-23T01:15:57.485Z,51.31
2023-12-23T01:16:07.955Z,51.42
2023-12-23T01:16:23.641Z,51.31
2023-12-23T01:16:34.173Z,51.31
2023-12-23T01:16:39.451Z,51.31
2023-12-23T01:16:49.967Z,51.31
2023-12-23T01:17:00.512Z,51.31
2023-12-23T01:17:10.990Z,51.31
2023-12-23T01:17:26.660Z,51.42
2023-12-23T01:17:37.223Z,51.42
2023-12-23T01:17:42.508Z,51.42
2023-12-23T01:17:53.382Z,51.42
2023-12-23T01:18:04.147Z,51.42
2023-12-23T01:18:14.702Z,51.42
2023-12-23T01:18:30.494Z,51.42
2023-12-23T01:18:41.074Z,51.42
2023-12-23T01:18:46.435Z,51.51
2023-12-23T01:18:56.939Z,51.51
2023-12-23T01:19:07.440Z,51.42
2023-12-23T01:19:17.930Z,51.51
2023-12-23T01:19:33.615Z,51.51
2023-12-23T01:19:44.110Z,51.51
2023-12-23T01:19:49.414Z,51.42
2023-12-23T01:19:59.884Z,51.42
2023-12-23T01:20:10.466Z,51.42
2023-12-23T01:20:21.053Z,51.42
2023-12-23T01:20:36.773Z,51.42
2023-12-23T01:20:47.236Z,51.42
2023-12-23T01:20:52.492Z,51.42
2023-12-23T01:21:02.944Z,51.42
2023-12-23T01:21:13.424Z,51.51
2023-12-23T01:21:23.874Z,51.51
2023-12-23T01:21:39.549Z,51.51
2023-12-23T01:21:50.036Z,51.51
2023-12-23T01:21:55.262Z,51.51
2023-12-23T01:22:05.746Z,51.51
2023-12-23T01:22:16.182Z,51.42
2023-12-23T01:22:26.646Z,51.42
2023-12-23T01:22:42.339Z,51.42
2023-12-23T01:22:52.913Z,51.51
2023-12-23T01:22:58.210Z,51.51
2023-12-23T01:23:08.730Z,51.51
2023-12-23T01:23:19.300Z,51.51
2023-12-23T01:23:29.826Z,51.51
2023-12-23T01:23:45.509Z,51.42
2023-12-23T01:23:55.964Z,51.42
2023-12-23T01:24:01.219Z,51.42
2023-12-23T01:24:11.708Z,51.51
2023-12-23T01:24:22.165Z,51.51
2023-12-23T01:24:32.610Z,51.51
2023-12-23T01:24:48.693Z,51.51
2023-12-23T01:24:59.954Z,51.42
2023-12-23T01:25:05.204Z,51.51
2023-12-23T01:25:15.676Z,51.51
2023-12-23T01:25:26.141Z,51.51
2023-12-23T01:25:36.622Z,51.42
2023-12-23T01:25:52.313Z,51.51
2023-12-23T01:26:02.815Z,51.42
2023-12-23T01:26:08.079Z,51.42
2023-12-23T01:26:18.648Z,51.42
2023-12-23T01:26:29.101Z,51.42
2023-12-23T01:26:39.585Z,51.42
2023-12-23T01:26:55.300Z,51.42
2023-12-23T01:27:05.813Z,51.42
2023-12-23T01:27:11.072Z,51.42
2023-12-23T01:27:21.502Z,51.51
2023-12-23T01:27:31.974Z,51.51
2023-12-23T01:27:42.430Z,51.42
2023-12-23T01:27:58.131Z,51.51
2023-12-23T01:28:08.598Z,51.42
2023-12-23T01:28:13.851Z,51.42
2023-12-23T01:28:24.305Z,51.42
2023-12-23T01:28:34.787Z,51.42
2023-12-23T01:28:45.560Z,51.42
2023-12-23T01:29:01.940Z,51.31
2023-12-23T01:29:12.657Z,51.42
2023-12-23T01:29:18.000Z,51.42
2023-12-23T01:29:28.464Z,51.42
2023-12-23T01:29:38.905Z,51.42
2023-12-23T01:29:49.383Z,51.42
2023-12-23T01:30:05.115Z,51.42
2023-12-23T01:30:15.588Z,51.42
2023-12-23T01:30:20.859Z,51.42
2023-12-23T01:30:31.437Z,51.51
2023-12-23T01:30:41.974Z,51.42
2023-12-23T01:30:52.531Z,51.42
2023-12-23T01:31:08.309Z,51.51
2023-12-23T01:31:18.789Z,51.51
2023-12-23T01:31:24.381Z,51.51
2023-12-23T01:31:34.871Z,51.42
2023-12-23T01:31:45.326Z,51.42
2023-12-23T01:31:55.807Z,51.42
2023-12-23T01:32:11.530Z,51.42
2023-12-23T01:32:22.059Z,51.42
2023-12-23T01:32:27.458Z,51.42
2023-12-23T01:32:38.004Z,51.42
2023-12-23T01:32:48.672Z,51.54
2023-12-23T01:32:59.228Z,51.51
2023-12-23T01:33:15.051Z,51.54
2023-12-23T01:33:25.648Z,51.51
2023-12-23T01:33:30.982Z,51.51
2023-12-23T01:33:41.623Z,51.51
2023-12-23T01:33:52.235Z,51.51
2023-12-23T01:34:02.748Z,51.61
2023-12-23T01:34:18.419Z,51.61
2023-12-23T01:34:28.869Z,51.61
2023-12-23T01:34:34.134Z,51.64
2023-12-23T01:34:44.638Z,51.61
2023-12-23T01:34:55.148Z,51.51
2023-12-23T01:35:05.700Z,51.61
2023-12-23T01:35:21.451Z,51.61
2023-12-23T01:35:31.928Z,51.61
2023-12-23T01:35:37.194Z,51.61
2023-12-23T01:35:47.687Z,51.61
2023-12-23T01:35:58.216Z,51.61
2023-12-23T01:36:08.693Z,51.51
2023-12-23T01:36:24.379Z,51.61
2023-12-23T01:36:34.818Z,51.72
2023-12-23T01:36:40.068Z,51.72
2023-12-23T01:36:50.534Z,51.61
2023-12-23T01:37:00.973Z,51.51
2023-12-23T01:37:11.435Z,51.51
2023-12-23T01:37:27.112Z,51.51
2023-12-23T01:37:37.591Z,51.51
2023-12-23T01:37:42.849Z,51.51
2023-12-23T01:37:53.823Z,51.51
2023-12-23T01:38:06.673Z,51.61
2023-12-23T01:38:13.634Z,51.61
2023-12-23T01:38:29.371Z,51.61
2023-12-23T01:38:39.868Z,51.61
2023-12-23T01:38:45.198Z,51.61
2023-12-23T01:38:55.660Z,51.72
2023-12-23T01:39:06.143Z,51.72
2023-12-23T01:39:16.592Z,51.51
2023-12-23T01:39:32.247Z,51.51
2023-12-23T01:39:42.698Z,51.61
2023-12-23T01:39:47.960Z,51.61
2023-12-23T01:39:58.420Z,51.61
2023-12-23T01:40:08.877Z,51.61
2023-12-23T01:40:19.377Z,51.61
2023-12-23T01:40:35.082Z,51.61
2023-12-23T01:40:45.595Z,51.51
2023-12-23T01:40:50.896Z,51.64
2023-12-23T01:41:01.511Z,51.61
2023-12-23T01:41:12.036Z,51.61
2023-12-23T01:41:22.510Z,51.61
2023-12-23T01:41:38.193Z,51.61
2023-12-23T01:41:48.651Z,51.61
2023-12-23T01:41:53.899Z,51.61
2023-12-23T01:42:04.374Z,51.51
2023-12-23T01:42:14.853Z,51.61
2023-12-23T01:42:25.305Z,51.61
2023-12-23T01:42:40.977Z,51.61
2023-12-23T01:42:51.419Z,51.61
2023-12-23T01:42:56.674Z,51.61
2023-12-23T01:43:07.160Z,51.61
2023-12-23T01:43:17.615Z,51.51
2023-12-23T01:43:28.075Z,51.51
2023-12-23T01:43:43.804Z,51.51
2023-12-23T01:43:54.357Z,51.54
2023-12-23T01:43:59.633Z,51.54
2023-12-23T01:44:10.100Z,51.64
2023-12-23T01:44:20.636Z,51.61
2023-12-23T01:44:31.100Z,51.61
2023-12-23T01:44:46.772Z,51.61
2023-12-23T01:44:57.211Z,51.64
2023-12-23T01:45:02.473Z,51.61
2023-12-23T01:45:12.951Z,51.61
2023-12-23T01:45:23.452Z,51.61
2023-12-23T01:45:36.200Z,51.61
2023-12-23T01:45:47.003Z,51.64
2023-12-23T01:45:57.467Z,51.61
2023-12-23T01:46:02.713Z,51.61
2023-12-23T01:46:13.166Z,51.61
2023-12-23T01:46:23.612Z,51.64
2023-12-23T01:46:34.056Z,51.61
2023-12-23T01:46:49.756Z,51.64
2023-12-23T01:47:00.271Z,51.61
2023-12-23T01:47:05.598Z,51.64
2023-12-23T01:47:16.136Z,51.64
2023-12-23T01:47:26.741Z,51.61
2023-12-23T01:47:37.302Z,51.64
2023-12-23T01:47:53.471Z,51.74
2023-12-23T01:48:04.173Z,51.72
2023-12-23T01:48:09.477Z,51.74
2023-12-23T01:48:20.092Z,51.74
2023-12-23T01:48:30.689Z,51.84
2023-12-23T01:48:41.232Z,51.72
2023-12-23T01:48:56.942Z,51.74
2023-12-23T01:49:07.467Z,51.74
2023-12-23T01:49:12.743Z,51.72
2023-12-23T01:49:23.241Z,51.72
2023-12-23T01:49:33.776Z,51.64
2023-12-23T01:49:44.288Z,51.74
2023-12-23T01:49:59.978Z,51.72
2023-12-23T01:50:10.490Z,51.74
2023-12-23T01:50:15.822Z,51.74
2023-12-23T01:50:26.385Z,51.74
2023-12-23T01:50:36.868Z,51.84
2023-12-23T01:50:47.318Z,51.72
2023-12-23T01:51:02.998Z,51.74
2023-12-23T01:51:13.461Z,51.72
2023-12-23T01:51:18.701Z,51.74
2023-12-23T01:51:29.196Z,51.72
2023-12-23T01:51:39.674Z,51.74
2023-12-23T01:51:50.131Z,51.72
2023-12-23T01:52:05.833Z,51.74
2023-12-23T01:52:16.304Z,51.72
2023-12-23T01:52:21.568Z,51.74
2023-12-23T01:52:32.030Z,51.74
2023-12-23T01:52:42.581Z,51.74
2023-12-23T01:52:53.077Z,51.72
2023-12-23T01:53:08.782Z,51.84
2023-12-23T01:53:19.399Z,51.84
2023-12-23T01:53:24.711Z,51.72
2023-12-23T01:53:35.161Z,51.74
2023-12-23T01:53:45.630Z,51.72
2023-12-23T01:53:56.177Z,51.84
2023-12-23T01:54:11.846Z,51.84
2023-12-23T01:54:22.322Z,51.72
2023-12-23T01:54:27.565Z,51.72
2023-12-23T01:54:38.031Z,51.74
2023-12-23T01:54:48.479Z,51.74
2023-12-23T01:54:58.964Z,51.84
2023-12-23T01:55:14.643Z,51.84
2023-12-23T01:55:25.108Z,51.74
2023-12-23T01:55:30.399Z,51.74
2023-12-23T01:55:40.885Z,51.81
2023-12-23T01:55:51.412Z,52.04
2023-12-23T01:56:01.943Z,51.84
2023-12-23T01:56:17.728Z,51.84
2023-12-23T01:56:28.208Z,51.74
2023-12-23T01:56:33.452Z,51.84
2023-12-23T01:56:44.452Z,51.84
2023-12-23T01:56:54.911Z,51.84
2023-12-23T01:57:05.395Z,51.84
2023-12-23T01:57:21.071Z,51.84
2023-12-23T01:57:31.579Z,51.74
2023-12-23T01:57:36.814Z,51.74
2023-12-23T01:57:47.342Z,51.74
2023-12-23T01:57:57.839Z,51.84
2023-12-23T01:58:08.309Z,51.94
2023-12-23T01:58:23.991Z,51.94
2023-12-23T01:58:34.481Z,51.84
2023-12-23T01:58:39.758Z,51.81
2023-12-23T01:58:50.300Z,51.84
2023-12-23T01:59:00.819Z,51.74
2023-12-23T01:59:11.273Z,51.84
2023-12-23T01:59:26.953Z,51.84
2023-12-23T01:59:37.426Z,51.72
2023-12-23T01:59:42.682Z,51.74
2023-12-23T01:59:53.119Z,51.74
2023-12-23T02:00:03.570Z,51.74
2023-12-23T02:00:14.038Z,51.74
2023-12-23T02:00:29.703Z,51.84
2023-12-23T02:00:40.229Z,51.84
2023-12-23T02:00:45.529Z,51.84
2023-12-23T02:00:56.032Z,51.84
2023-12-23T02:01:06.586Z,51.94
2023-12-23T02:01:17.111Z,51.94
2023-12-23T02:01:33.043Z,51.84
2023-12-23T02:01:43.609Z,51.84
2023-12-23T02:01:49.007Z,51.94
2023-12-23T02:01:59.574Z,51.84
2023-12-23T02:02:10.110Z,51.84
2023-12-23T02:02:20.690Z,51.84
2023-12-23T02:02:36.518Z,51.84
2023-12-23T02:02:47.179Z,51.84
2023-12-23T02:02:52.924Z,51.84
2023-12-23T02:03:03.746Z,51.84
2023-12-23T02:03:14.258Z,51.84
2023-12-23T02:03:24.787Z,51.84
2023-12-23T02:03:40.511Z,51.84
2023-12-23T02:03:51.000Z,51.74
2023-12-23T02:03:56.323Z,51.74
2023-12-23T02:04:06.823Z,51.84
2023-12-23T02:04:17.267Z,51.74
2023-12-23T02:04:27.712Z,51.84
2023-12-23T02:04:43.426Z,51.94
2023-12-23T02:04:54.028Z,51.94
2023-12-23T02:04:59.353Z,52.04
2023-12-23T02:05:09.912Z,52.04
2023-12-23T02:05:20.457Z,51.94
2023-12-23T02:05:31.011Z,51.94
2023-12-23T02:05:46.935Z,51.94
2023-12-23T02:05:57.565Z,51.94
2023-12-23T02:06:02.943Z,51.94
2023-12-23T02:06:13.504Z,51.94
2023-12-23T02:06:24.067Z,51.94
2023-12-23T02:06:34.534Z,51.94
2023-12-23T02:06:50.213Z,51.94
2023-12-23T02:07:00.679Z,51.94
2023-12-23T02:07:05.924Z,51.94
2023-12-23T02:07:16.391Z,51.84
2023-12-23T02:07:26.858Z,52.04
2023-12-23T02:07:37.361Z,52.04
2023-12-23T02:07:53.077Z,51.94
2023-12-23T02:08:03.558Z,51.84
2023-12-23T02:08:08.841Z,51.84
2023-12-23T02:08:19.361Z,51.84
2023-12-23T02:08:29.821Z,51.84
2023-12-23T02:08:40.272Z,51.84
2023-12-23T02:08:55.945Z,52.04
2023-12-23T02:09:06.408Z,52.04
2023-12-23T02:09:11.654Z,52.04
2023-12-23T02:09:22.108Z,52.04
2023-12-23T02:09:32.567Z,51.94
2023-12-23T02:09:43.025Z,51.94
2023-12-23T02:09:58.691Z,51.94
2023-12-23T02:10:09.176Z,51.94
2023-12-23T02:10:14.421Z,51.94
2023-12-23T02:10:24.970Z,51.94
2023-12-23T02:10:35.498Z,51.94
2023-12-23T02:10:46.076Z,51.94
2023-12-23T02:11:01.752Z,51.94
2023-12-23T02:11:12.267Z,51.84
2023-12-23T02:11:17.632Z,51.84
2023-12-23T02:11:28.567Z,51.84
2023-12-23T02:11:39.105Z,51.94
2023-12-23T02:11:49.554Z,51.94
2023-12-23T02:12:05.216Z,52.04
2023-12-23T02:12:15.703Z,51.94
2023-12-23T02:12:20.941Z,52.04
2023-12-23T02:12:31.407Z,52.14
2023-12-23T02:12:43.379Z,52.04
2023-12-23T02:13:05.455Z,51.94
2023-12-23T02:13:17.345Z,51.94
2023-12-23T02:13:23.005Z,52.04
2023-12-23T02:13:28.344Z,52.04
2023-12-23T02:13:33.614Z,52.04
2023-12-23T02:13:44.111Z,52.04
2023-12-23T02:13:54.576Z,52.04
2023-12-23T02:14:20.732Z,52.04
2023-12-23T02:14:26.059Z,52.04
2023-12-23T02:14:31.310Z,52.04
2023-12-23T02:14:36.770Z,52.04
2023-12-23T02:14:47.295Z,52.04
2023-12-23T02:14:57.798Z,52.04
2023-12-23T02:15:23.889Z,52.04
2023-12-23T02:15:29.156Z,52.04